Time,TemperatureF,DewpointF,PressureIn,WindDirection,WindDirectionDegrees,WindSpeedMPH,WindSpeedGustMPH,Humidity,HourlyPrecipIn,Conditions,Clouds,dailyrainin,SoftwareType,DateUTC
2013-04-02 00:02:00,35.0,17.0,29.93,WNW,283,2.0,7.0,47,0.00,,,0.00,,2013-04-02 04:02:00,
2013-04-02 00:23:00,35.0,17.0,29.93,WNW,283,2.0,7.0,47,0.00,,,0.00,,2013-04-02 04:23:00,
2013-04-02 00:33:00,35.0,17.0,29.93,WNW,283,2.0,7.0,47,0.00,,,0.00,,2013-04-02 04:33:00,
2013-04-02 00:43:00,35.0,17.0,29.93,WNW,283,2.0,7.0,47,0.00,,,0.00,,2013-04-02 04:43:00,
2013-04-02 00:53:00,35.0,17.0,29.93,WNW,283,2.0,7.0,47,0.00,,,0.00,,2013-04-02 04:53:00,
2013-04-02 01:02:00,34.0,16.0,29.95,WNW,283,0.0,6.0,47,0.00,,,0.00,,2013-04-02 05:02:00,
2013-04-02 01:23:00,34.0,16.0,29.95,WNW,283,0.0,6.0,47,0.00,,,0.00,,2013-04-02 05:23:00,
2013-04-02 01:32:00,34.0,16.0,29.95,WNW,283,0.0,6.0,47,0.00,,,0.00,,2013-04-02 05:32:00,
2013-04-02 01:43:00,34.0,16.0,29.95,WNW,283,0.0,6.0,47,0.00,,,0.00,,2013-04-02 05:43:00,
2013-04-02 01:52:00,34.0,16.0,29.95,WNW,283,0.0,6.0,47,0.00,,,0.00,,2013-04-02 05:52:00,
2013-04-02 02:02:00,33.0,15.0,29.96,WNW,290,0.0,5.0,48,0.00,,,0.00,,2013-04-02 06:02:00,
2013-04-02 02:22:00,33.0,15.0,29.96,WNW,290,0.0,5.0,48,0.00,,,0.00,,2013-04-02 06:22:00,
2013-04-02 02:32:00,33.0,15.0,29.96,WNW,290,0.0,5.0,48,0.00,,,0.00,,2013-04-02 06:32:00,
2013-04-02 02:42:00,33.0,15.0,29.96,WNW,290,0.0,5.0,48,0.00,,,0.00,,2013-04-02 06:42:00,
2013-04-02 02:52:00,33.0,15.0,29.96,WNW,290,0.0,5.0,48,0.00,,,0.00,,2013-04-02 06:52:00,
2013-04-02 03:22:00,32.0,15.0,29.95,West,264,1.0,3.0,50,0.00,,,0.00,,2013-04-02 07:22:00,
2013-04-02 03:32:00,32.0,15.0,29.95,West,264,1.0,3.0,50,0.00,,,0.00,,2013-04-02 07:32:00,
2013-04-02 03:43:00,32.0,15.0,29.95,West,264,1.0,3.0,50,0.00,,,0.00,,2013-04-02 07:43:00,
2013-04-02 03:53:00,32.0,15.0,29.95,West,264,1.0,3.0,50,0.00,,,0.00,,2013-04-02 07:53:00,
2013-04-02 04:02:00,32.0,15.0,29.95,West,264,1.0,3.0,50,0.00,,,0.00,,2013-04-02 08:02:00,
2013-04-02 04:22:00,31.0,16.0,29.95,WNW,300,0.0,3.0,54,0.00,,,0.00,,2013-04-02 08:22:00,
2013-04-02 04:32:00,31.0,16.0,29.95,WNW,300,0.0,3.0,54,0.00,,,0.00,,2013-04-02 08:32:00,
2013-04-02 04:43:00,31.0,16.0,29.95,WNW,300,0.0,3.0,54,0.00,,,0.00,,2013-04-02 08:43:00,
2013-04-02 04:52:00,31.0,16.0,29.95,WNW,300,0.0,3.0,54,0.00,,,0.00,,2013-04-02 08:52:00,
2013-04-02 05:02:00,31.0,16.0,29.95,WNW,300,0.0,3.0,54,0.00,,,0.00,,2013-04-02 09:02:00,
2013-04-02 05:03:00,30.0,16.0,29.95,WSW,248,0.0,4.0,55,0.00,,,0.00,,2013-04-02 09:03:00,
2013-04-02 05:22:00,30.0,16.0,29.95,WSW,248,0.0,4.0,55,0.00,,,0.00,,2013-04-02 09:22:00,
2013-04-02 05:33:00,30.0,16.0,29.95,WSW,248,0.0,4.0,55,0.00,,,0.00,,2013-04-02 09:33:00,
2013-04-02 05:43:00,30.0,16.0,29.95,WSW,248,0.0,4.0,55,0.00,,,0.00,,2013-04-02 09:43:00,
2013-04-02 05:53:00,30.0,16.0,29.95,WSW,248,0.0,4.0,55,0.00,,,0.00,,2013-04-02 09:53:00,
2013-04-02 06:24:00,30.0,17.0,29.96,West,259,2.0,9.0,59,0.00,,,0.00,,2013-04-02 10:24:00,
2013-04-02 06:33:00,30.0,17.0,29.96,West,259,2.0,9.0,59,0.00,,,0.00,,2013-04-02 10:33:00,
2013-04-02 06:43:00,30.0,17.0,29.96,West,259,2.0,9.0,59,0.00,,,0.00,,2013-04-02 10:43:00,
2013-04-02 06:53:00,30.0,17.0,29.96,West,259,2.0,9.0,59,0.00,,,0.00,,2013-04-02 10:53:00,
2013-04-02 07:02:00,30.0,17.0,29.96,West,259,2.0,9.0,59,0.00,,,0.00,,2013-04-02 11:02:00,
2013-04-02 07:23:00,29.0,17.0,29.98,West,267,1.0,7.0,60,0.00,,,0.00,,2013-04-02 11:23:00,
2013-04-02 07:33:00,29.0,17.0,29.98,West,267,1.0,7.0,60,0.00,,,0.00,,2013-04-02 11:33:00,
2013-04-02 07:43:00,29.0,17.0,29.98,West,267,1.0,7.0,60,0.00,,,0.00,,2013-04-02 11:43:00,
2013-04-02 07:53:00,29.0,17.0,29.98,West,267,1.0,7.0,60,0.00,,,0.00,,2013-04-02 11:53:00,
2013-04-02 08:02:00,31.0,18.0,30.02,SW,233,3.0,9.0,58,0.00,,,0.00,,2013-04-02 12:02:00,
2013-04-02 08:23:00,31.0,18.0,30.02,SW,233,3.0,9.0,58,0.00,,,0.00,,2013-04-02 12:23:00,
2013-04-02 08:32:00,31.0,18.0,30.02,SW,233,3.0,9.0,58,0.00,,,0.00,,2013-04-02 12:32:00,
2013-04-02 08:42:00,31.0,18.0,30.02,SW,233,3.0,9.0,58,0.00,,,0.00,,2013-04-02 12:42:00,
2013-04-02 08:53:00,31.0,18.0,30.02,SW,233,3.0,9.0,58,0.00,,,0.00,,2013-04-02 12:53:00,
2013-04-02 09:02:00,34.0,19.0,30.04,WNW,300,5.0,16.0,54,0.00,,,0.00,,2013-04-02 13:02:00,
2013-04-02 09:12:00,34.0,19.0,30.04,WNW,300,5.0,16.0,54,0.00,,,0.00,,2013-04-02 13:12:00,
2013-04-02 09:23:00,34.0,19.0,30.04,WNW,300,5.0,16.0,54,0.00,,,0.00,,2013-04-02 13:23:00,
2013-04-02 09:33:00,34.0,19.0,30.04,WNW,300,5.0,16.0,54,0.00,,,0.00,,2013-04-02 13:33:00,
2013-04-02 09:42:00,34.0,19.0,30.04,WNW,300,5.0,16.0,54,0.00,,,0.00,,2013-04-02 13:42:00,
2013-04-02 09:52:00,34.0,19.0,30.04,WNW,300,5.0,16.0,54,0.00,,,0.00,,2013-04-02 13:52:00,
2013-04-02 10:02:00,35.0,20.0,30.04,West,279,6.0,14.0,53,0.00,,,0.00,,2013-04-02 14:02:00,
2013-04-02 10:23:00,35.0,20.0,30.04,West,279,6.0,14.0,53,0.00,,,0.00,,2013-04-02 14:23:00,
2013-04-02 10:33:00,35.0,20.0,30.04,West,279,6.0,14.0,53,0.00,,,0.00,,2013-04-02 14:33:00,
2013-04-02 10:43:00,35.0,20.0,30.04,West,279,6.0,14.0,53,0.00,,,0.00,,2013-04-02 14:43:00,
2013-04-02 10:52:00,35.0,20.0,30.04,West,279,6.0,14.0,53,0.00,,,0.00,,2013-04-02 14:52:00,
2013-04-02 11:02:00,36.0,20.0,30.04,SW,231,9.0,20.0,52,0.00,,,0.00,,2013-04-02 15:02:00,
2013-04-02 11:23:00,36.0,20.0,30.04,SW,231,9.0,20.0,52,0.00,,,0.00,,2013-04-02 15:23:00,
2013-04-02 11:33:00,36.0,20.0,30.04,SW,231,9.0,20.0,52,0.00,,,0.00,,2013-04-02 15:33:00,
2013-04-02 11:43:00,36.0,20.0,30.04,SW,231,9.0,20.0,52,0.00,,,0.00,,2013-04-02 15:43:00,
2013-04-02 11:58:00,36.0,20.0,30.04,SW,231,9.0,20.0,52,0.00,,,0.00,,2013-04-02 15:58:00,
2013-04-02 12:02:00,35.0,18.0,30.04,SW,227,4.0,16.0,49,0.00,,,0.00,,2013-04-02 16:02:00,
2013-04-02 12:25:00,35.0,18.0,30.04,SW,227,4.0,16.0,49,0.00,,,0.00,,2013-04-02 16:25:00,
2013-04-02 12:39:00,35.0,18.0,30.04,SW,227,4.0,16.0,49,0.00,,,0.00,,2013-04-02 16:39:00,
2013-04-02 12:53:00,35.0,18.0,30.04,SW,227,4.0,16.0,49,0.00,,,0.00,,2013-04-02 16:53:00,
2013-04-02 13:02:00,37.0,18.0,30.03,West,269,8.0,22.0,46,0.00,,,0.00,,2013-04-02 17:02:00,
2013-04-02 13:25:00,37.0,18.0,30.03,West,269,8.0,22.0,46,0.00,,,0.00,,2013-04-02 17:25:00,
2013-04-02 13:35:00,37.0,18.0,30.03,West,269,8.0,22.0,46,0.00,,,0.00,,2013-04-02 17:35:00,
2013-04-02 13:43:00,37.0,18.0,30.03,West,269,8.0,22.0,46,0.00,,,0.00,,2013-04-02 17:43:00,
2013-04-02 13:56:00,37.0,18.0,30.03,West,269,8.0,22.0,46,0.00,,,0.00,,2013-04-02 17:56:00,
2013-04-02 14:02:00,39.0,19.0,30.02,West,270,11.0,22.0,44,0.00,,,0.00,,2013-04-02 18:02:00,
2013-04-02 14:23:00,39.0,19.0,30.02,West,270,11.0,22.0,44,0.00,,,0.00,,2013-04-02 18:23:00,
2013-04-02 14:35:00,39.0,19.0,30.02,West,270,11.0,22.0,44,0.00,,,0.00,,2013-04-02 18:35:00,
2013-04-02 14:43:00,39.0,19.0,30.02,West,270,11.0,22.0,44,0.00,,,0.00,,2013-04-02 18:43:00,
2013-04-02 14:57:00,39.0,19.0,30.02,West,270,11.0,22.0,44,0.00,,,0.00,,2013-04-02 18:57:00,
2013-04-02 15:02:00,39.0,17.0,30.01,West,261,7.0,17.0,41,0.00,,,0.00,,2013-04-02 19:02:00,
2013-04-02 15:23:00,39.0,17.0,30.01,West,261,7.0,17.0,41,0.00,,,0.00,,2013-04-02 19:23:00,
2013-04-02 15:34:00,39.0,17.0,30.01,West,261,7.0,17.0,41,0.00,,,0.00,,2013-04-02 19:34:00,
2013-04-02 15:47:00,39.0,17.0,30.01,West,261,7.0,17.0,41,0.00,,,0.00,,2013-04-02 19:47:00,
2013-04-02 15:57:00,39.0,17.0,30.01,West,261,7.0,17.0,41,0.00,,,0.00,,2013-04-02 19:57:00,
2013-04-02 16:03:00,41.0,19.0,29.99,SW,221,7.0,16.0,40,0.00,,,0.00,,2013-04-02 20:03:00,
2013-04-02 16:23:00,41.0,19.0,29.99,SW,221,7.0,16.0,40,0.00,,,0.00,,2013-04-02 20:23:00,
2013-04-02 16:34:00,41.0,19.0,29.99,SW,221,7.0,16.0,40,0.00,,,0.00,,2013-04-02 20:34:00,
2013-04-02 16:44:00,41.0,19.0,29.99,SW,221,7.0,16.0,40,0.00,,,0.00,,2013-04-02 20:44:00,
2013-04-02 17:03:00,41.0,18.0,30.00,NW,326,6.0,16.0,39,0.00,,,0.00,,2013-04-02 21:03:00,
2013-04-02 17:23:00,41.0,18.0,30.00,NW,326,6.0,16.0,39,0.00,,,0.00,,2013-04-02 21:23:00,
2013-04-02 17:35:00,41.0,18.0,30.00,NW,326,6.0,16.0,39,0.00,,,0.00,,2013-04-02 21:35:00,
2013-04-02 17:44:00,41.0,18.0,30.00,NW,326,6.0,16.0,39,0.00,,,0.00,,2013-04-02 21:44:00,
2013-04-02 18:03:00,41.0,18.0,30.01,WNW,286,5.0,16.0,39,0.00,,,0.00,,2013-04-02 22:03:00,
2013-04-02 18:25:00,41.0,18.0,30.01,WNW,286,5.0,16.0,39,0.00,,,0.00,,2013-04-02 22:25:00,
2013-04-02 18:34:00,41.0,18.0,30.01,WNW,286,5.0,16.0,39,0.00,,,0.00,,2013-04-02 22:34:00,
2013-04-02 18:44:00,41.0,18.0,30.01,WNW,286,5.0,16.0,39,0.00,,,0.00,,2013-04-02 22:44:00,
2013-04-02 18:54:00,41.0,18.0,30.01,WNW,286,5.0,16.0,39,0.00,,,0.00,,2013-04-02 22:54:00,
2013-04-02 19:03:00,39.0,17.0,30.03,West,275,5.0,16.0,40,0.00,,,0.00,,2013-04-02 23:03:00,
2013-04-02 19:13:00,39.0,17.0,30.03,West,275,5.0,16.0,40,0.00,,,0.00,,2013-04-02 23:13:00,
2013-04-02 19:24:00,39.0,17.0,30.03,West,275,5.0,16.0,40,0.00,,,0.00,,2013-04-02 23:24:00,
2013-04-02 19:37:00,39.0,17.0,30.03,West,275,5.0,16.0,40,0.00,,,0.00,,2013-04-02 23:37:00,
2013-04-02 19:43:00,39.0,17.0,30.03,West,275,5.0,16.0,40,0.00,,,0.00,,2013-04-02 23:43:00,
2013-04-02 19:54:00,39.0,17.0,30.03,West,275,5.0,16.0,40,0.00,,,0.00,,2013-04-02 23:54:00,
2013-04-02 20:03:00,37.0,17.0,30.05,WNW,291,2.0,11.0,43,0.00,,,0.00,,2013-04-03 00:03:00,
2013-04-02 20:26:00,37.0,17.0,30.05,WNW,291,2.0,11.0,43,0.00,,,0.00,,2013-04-03 00:26:00,
2013-04-02 20:34:00,37.0,17.0,30.05,WNW,291,2.0,11.0,43,0.00,,,0.00,,2013-04-03 00:34:00,
2013-04-02 20:47:00,37.0,17.0,30.05,WNW,291,2.0,11.0,43,0.00,,,0.00,,2013-04-03 00:47:00,
2013-04-02 20:57:00,37.0,17.0,30.05,WNW,291,2.0,11.0,43,0.00,,,0.00,,2013-04-03 00:57:00,
2013-04-02 21:02:00,36.0,18.0,30.08,WSW,257,1.0,11.0,47,0.00,,,0.00,,2013-04-03 01:02:00,
2013-04-02 21:34:00,36.0,18.0,30.08,WSW,257,1.0,11.0,47,0.00,,,0.00,,2013-04-03 01:34:00,
2013-04-02 21:43:00,36.0,18.0,30.08,WSW,257,1.0,11.0,47,0.00,,,0.00,,2013-04-03 01:43:00,
2013-04-02 22:02:00,34.0,17.0,30.10,West,263,1.0,10.0,50,0.00,,,0.00,,2013-04-03 02:02:00,
2013-04-02 22:25:00,34.0,17.0,30.10,West,263,1.0,10.0,50,0.00,,,0.00,,2013-04-03 02:25:00,
2013-04-02 22:34:00,34.0,17.0,30.10,West,263,1.0,10.0,50,0.00,,,0.00,,2013-04-03 02:34:00,
2013-04-02 22:44:00,34.0,17.0,30.10,West,263,1.0,10.0,50,0.00,,,0.00,,2013-04-03 02:44:00,
2013-04-02 22:53:00,34.0,17.0,30.10,West,263,1.0,10.0,50,0.00,,,0.00,,2013-04-03 02:53:00,
2013-04-02 23:02:00,33.0,18.0,30.11,West,268,1.0,6.0,53,0.00,,,0.00,,2013-04-03 03:02:00,
2013-04-02 23:23:00,33.0,18.0,30.11,West,268,1.0,6.0,53,0.00,,,0.00,,2013-04-03 03:23:00,
2013-04-02 23:38:00,33.0,18.0,30.11,West,268,1.0,6.0,53,0.00,,,0.00,,2013-04-03 03:38:00,
2013-04-02 23:44:00,33.0,18.0,30.11,West,268,1.0,6.0,53,0.00,,,0.00,,2013-04-03 03:44:00,
2013-04-02 23:54:00,33.0,18.0,30.11,West,268,1.0,6.0,53,0.00,,,0.00,,2013-04-03 03:54:00,